2022年5月28日 5:00 下午2022年5月29日 2:00 上午有效
时间
星期六
5:00 下午
星期六
6:00 下午
星期六
7:00 下午
星期六
8:00 下午
星期六
9:00 下午
星期六
10:00 下午
星期六
11:00 下午
星期日
12:00 上午
星期日
1:00 上午
代码
VFR
VFR
VFR
VFR
VFR
VFR
VFR
VFR
VFR
天气
天空晴朗
天空晴朗
天空晴朗
天空晴朗
天空晴朗
天空晴朗
天空晴朗
天空晴朗
天空晴朗
能见度
6¼ mi+
6¼ mi+
6¼ mi+
6¼ mi+
6¼ mi+
6¼ mi+
6¼ mi+
6¼ mi+
6¼ mi+
天花板
-
-
-
-
-
-
-
-
-
290°
290°
290°
290°
290°
290°
290°
290°
290°
290°
290°
290°
290°
290°
290°
290°
290°
290°
速度
12 kt
12 kt
12 kt
12 kt
12 kt
12 kt
12 kt
12 kt
12 kt
阵风
温度/星期日
9:21 下午

原版的

TAF LFCK 281400Z 2815/2824 29012KT CAVOK

TAF Graulhet-Montdragon Airport

Graulhet-Montdragon Airport是Graulhet/Montdragon,法国中的小机场。 该机场有2条跑道: 10/28 和 9/27.

这份报告是针对2022年5月28日 4:00 下午, 当地时间在Castres-Mazamet Airport进行的。 从2022年5月28日 5:00 下午到2022年5月29日 2:00 上午, 当地时间有效.

预报

  • 从星期六 5:00 下午到星期日 2:00 上午

    • 风: 风来自290°方向,速度为12 kt。
    • CAVOK: 天气为CAVOK。这意味着在5.000 ft或MSA(最低安全高度)以下(以较高者为准)以下没有云。这也意味着没有观测到积雨云或高耸的积云,可见度为6¼ mi 或者更多或更高。此外,不会有雾,降雨或其他重要天气。

白天

今天,太阳从6:15 上午升起,在9:23 下午降落。 这适用于Graulhet-Montdragon Airport,世界夏令时可能有所不同。 当地时间与世界标准时间之间的时差为+2 小时。 夏令时目前正在进行中。

下载我们的应用程序

在您的手机和平板电脑上轻松访问所有航空天气。
有许多网站上没有的功能,如离线支持和个人机场列表。

Studio Eveline

Benalmádena
España

我们和第三方通过cookies跟踪您在我们网站上的上网行为。如果您继续,我们认为您同意我们的cookie政策。 了解更多